Terminal Aerodrome Forecast
Issued by NWS Northern Indiana

Home | Current Version | Previous Version | Graphics & Text | Print | Product List | Glossary On
Versions: 1 2 3 4 5 6 7 8 9 10 11 12 13 14 15 16 17
601
FTUS43 KIWX 190539 AAA
TAFFWA
TAF AMD
KFWA 190539Z 1906/2006 23008KT P6SM OVC006
     FM191400 15005KT P6SM BKN012
     FM191600 14006KT P6SM SCT015 BKN150
     FM200300 10006KT 3SM -RA BR OVC030
     FM200500 09006KT 2SM -RA BR OVC008=

USA.gov is the U.S. government's official web portal to all federal, state and local government web resources and services.